sensor_id;sensor_type;location;lat;lon;timestamp;P1;durP1;ratioP1;P2;durP2;ratioP2
7523;SDS011;3803;51.666;7.630;2022-11-15T00:00:38;11.93;;;9.00;;
7523;SDS011;3803;51.666;7.630;2022-11-15T00:01:17;10.45;;;9.00;;
7523;SDS011;3803;51.666;7.630;2022-11-15T00:01:57;10.60;;;9.27;;
7523;SDS011;3803;51.666;7.630;2022-11-15T00:02:36;10.82;;;9.68;;
7523;SDS011;3803;51.666;7.630;2022-11-15T00:03:22;11.35;;;9.73;;
7523;SDS011;3803;51.666;7.630;2022-11-15T00:04:04;10.30;;;9.07;;
7523;SDS011;3803;51.666;7.630;2022-11-15T00:04:43;9.95;;;8.90;;
7523;SDS011;3803;51.666;7.630;2022-11-15T00:05:27;10.25;;;9.10;;
7523;SDS011;3803;51.666;7.630;2022-11-15T00:06:08;10.95;;;9.48;;
7523;SDS011;3803;51.666;7.630;2022-11-15T00:06:47;11.48;;;9.40;;
7523;SDS011;3803;51.666;7.630;2022-11-15T00:07:26;12.70;;;9.73;;
7523;SDS011;3803;51.666;7.630;2022-11-15T00:08:05;12.18;;;9.80;;
7523;SDS011;3803;51.666;7.630;2022-11-15T00:08:44;10.75;;;9.63;;
7523;SDS011;3803;51.666;7.630;2022-11-15T00:09:23;10.38;;;9.23;;
7523;SDS011;3803;51.666;7.630;2022-11-15T00:10:03;10.50;;;9.40;;
7523;SDS011;3803;51.666;7.630;2022-11-15T00:10:42;11.00;;;9.30;;
7523;SDS011;3803;51.666;7.630;2022-11-15T00:11:21;10.40;;;9.30;;
7523;SDS011;3803;51.666;7.630;2022-11-15T00:12:00;10.23;;;9.20;;
7523;SDS011;3803;51.666;7.630;2022-11-15T00:12:40;9.93;;;8.93;;
7523;SDS011;3803;51.666;7.630;2022-11-15T00:13:19;11.85;;;9.80;;
7523;SDS011;3803;51.666;7.630;2022-11-15T00:13:58;12.65;;;9.40;;
7523;SDS011;3803;51.666;7.630;2022-11-15T00:14:37;11.18;;;9.05;;
7523;SDS011;3803;51.666;7.630;2022-11-15T00:15:16;11.73;;;9.60;;
7523;SDS011;3803;51.666;7.630;2022-11-15T00:15:58;12.45;;;10.02;;
7523;SDS011;3803;51.666;7.630;2022-11-15T00:16:39;10.70;;;9.20;;
7523;SDS011;3803;51.666;7.630;2022-11-15T00:17:18;10.68;;;9.32;;
7523;SDS011;3803;51.666;7.630;2022-11-15T00:17:57;11.75;;;9.60;;
7523;SDS011;3803;51.666;7.630;2022-11-15T00:18:36;11.95;;;9.70;;
7523;SDS011;3803;51.666;7.630;2022-11-15T00:19:16;11.68;;;9.63;;
7523;SDS011;3803;51.666;7.630;2022-11-15T00:19:55;11.80;;;9.13;;
7523;SDS011;3803;51.666;7.630;2022-11-15T00:20:34;11.65;;;9.25;;
7523;SDS011;3803;51.666;7.630;2022-11-15T00:21:14;10.95;;;9.15;;
7523;SDS011;3803;51.666;7.630;2022-11-15T00:21:54;10.25;;;8.88;;
7523;SDS011;3803;51.666;7.630;2022-11-15T00:22:33;10.20;;;8.70;;
7523;SDS011;3803;51.666;7.630;2022-11-15T00:23:12;10.85;;;8.90;;
7523;SDS011;3803;51.666;7.630;2022-11-15T00:23:51;10.30;;;8.85;;
7523;SDS011;3803;51.666;7.630;2022-11-15T00:24:31;13.18;;;9.60;;
7523;SDS011;3803;51.666;7.630;2022-11-15T00:25:10;12.25;;;9.65;;
7523;SDS011;3803;51.666;7.630;2022-11-15T00:25:56;10.50;;;9.32;;
7523;SDS011;3803;51.666;7.630;2022-11-15T00:26:35;12.05;;;9.48;;
7523;SDS011;3803;51.666;7.630;2022-11-15T00:27:15;9.95;;;8.90;;
7523;SDS011;3803;51.666;7.630;2022-11-15T00:27:57;10.23;;;9.00;;
7523;SDS011;3803;51.666;7.630;2022-11-15T00:28:37;12.20;;;9.55;;
7523;SDS011;3803;51.666;7.630;2022-11-15T00:29:17;12.75;;;10.07;;
7523;SDS011;3803;51.666;7.630;2022-11-15T00:29:56;11.25;;;9.98;;
7523;SDS011;3803;51.666;7.630;2022-11-15T00:30:35;12.02;;;9.75;;
7523;SDS011;3803;51.666;7.630;2022-11-15T00:31:14;11.02;;;9.43;;
7523;SDS011;3803;51.666;7.630;2022-11-15T00:31:53;13.10;;;9.23;;
7523;SDS011;3803;51.666;7.630;2022-11-15T00:32:33;12.88;;;9.73;;
7523;SDS011;3803;51.666;7.630;2022-11-15T00:33:12;12.10;;;9.98;;
7523;SDS011;3803;51.666;7.630;2022-11-15T00:33:51;11.60;;;9.00;;
7523;SDS011;3803;51.666;7.630;2022-11-15T00:34:30;13.18;;;9.52;;
7523;SDS011;3803;51.666;7.630;2022-11-15T00:35:09;12.40;;;9.98;;
7523;SDS011;3803;51.666;7.630;2022-11-15T00:35:48;11.60;;;9.75;;
7523;SDS011;3803;51.666;7.630;2022-11-15T00:36:27;11.70;;;9.52;;
7523;SDS011;3803;51.666;7.630;2022-11-15T00:37:06;12.80;;;9.52;;
7523;SDS011;3803;51.666;7.630;2022-11-15T00:37:46;11.73;;;9.75;;
7523;SDS011;3803;51.666;7.630;2022-11-15T00:38:30;10.68;;;9.40;;
7523;SDS011;3803;51.666;7.630;2022-11-15T00:39:10;13.02;;;9.82;;
7523;SDS011;3803;51.666;7.630;2022-11-15T00:39:49;13.68;;;10.57;;
7523;SDS011;3803;51.666;7.630;2022-11-15T00:40:28;12.23;;;10.10;;
7523;SDS011;3803;51.666;7.630;2022-11-15T00:41:08;10.98;;;9.20;;
7523;SDS011;3803;51.666;7.630;2022-11-15T00:41:47;10.65;;;8.70;;
7523;SDS011;3803;51.666;7.630;2022-11-15T00:42:26;10.90;;;8.98;;
7523;SDS011;3803;51.666;7.630;2022-11-15T00:43:05;11.27;;;9.27;;
7523;SDS011;3803;51.666;7.630;2022-11-15T00:43:44;10.38;;;9.25;;
7523;SDS011;3803;51.666;7.630;2022-11-15T00:44:23;10.75;;;9.50;;
7523;SDS011;3803;51.666;7.630;2022-11-15T00:45:03;11.98;;;9.68;;
7523;SDS011;3803;51.666;7.630;2022-11-15T00:45:42;10.30;;;9.20;;
7523;SDS011;3803;51.666;7.630;2022-11-15T00:46:21;10.63;;;8.90;;
7523;SDS011;3803;51.666;7.630;2022-11-15T00:47:00;12.27;;;8.93;;
7523;SDS011;3803;51.666;7.630;2022-11-15T00:47:40;13.02;;;9.70;;
7523;SDS011;3803;51.666;7.630;2022-11-15T00:48:19;10.93;;;9.02;;
7523;SDS011;3803;51.666;7.630;2022-11-15T00:48:58;10.90;;;9.60;;
7523;SDS011;3803;51.666;7.630;2022-11-15T00:49:37;10.02;;;8.80;;
7523;SDS011;3803;51.666;7.630;2022-11-15T00:50:16;11.60;;;9.40;;
7523;SDS011;3803;51.666;7.630;2022-11-15T00:50:56;12.10;;;9.77;;
7523;SDS011;3803;51.666;7.630;2022-11-15T00:51:36;11.70;;;9.40;;
7523;SDS011;3803;51.666;7.630;2022-11-15T00:52:15;12.60;;;9.75;;
7523;SDS011;3803;51.666;7.630;2022-11-15T00:52:54;13.35;;;9.55;;
7523;SDS011;3803;51.666;7.630;2022-11-15T00:53:33;11.43;;;9.27;;
7523;SDS011;3803;51.666;7.630;2022-11-15T00:54:13;10.02;;;8.90;;
7523;SDS011;3803;51.666;7.630;2022-11-15T00:54:53;10.80;;;8.88;;
7523;SDS011;3803;51.666;7.630;2022-11-15T00:55:32;10.63;;;8.55;;
7523;SDS011;3803;51.666;7.630;2022-11-15T00:56:11;10.30;;;8.82;;
7523;SDS011;3803;51.666;7.630;2022-11-15T00:56:50;11.02;;;8.93;;
7523;SDS011;3803;51.666;7.630;2022-11-15T00:57:29;10.70;;;9.32;;
7523;SDS011;3803;51.666;7.630;2022-11-15T00:58:08;11.77;;;9.60;;
7523;SDS011;3803;51.666;7.630;2022-11-15T00:58:47;12.48;;;9.38;;
7523;SDS011;3803;51.666;7.630;2022-11-15T00:59:27;11.00;;;9.50;;
7523;SDS011;3803;51.666;7.630;2022-11-15T01:00:06;11.25;;;10.05;;
7523;SDS011;3803;51.666;7.630;2022-11-15T01:00:46;10.52;;;9.43;;
7523;SDS011;3803;51.666;7.630;2022-11-15T01:01:25;10.30;;;9.20;;
7523;SDS011;3803;51.666;7.630;2022-11-15T01:02:04;10.38;;;9.00;;
7523;SDS011;3803;51.666;7.630;2022-11-15T01:02:43;9.60;;;8.60;;
7523;SDS011;3803;51.666;7.630;2022-11-15T01:03:22;9.75;;;8.75;;
7523;SDS011;3803;51.666;7.630;2022-11-15T01:04:01;10.88;;;9.43;;
7523;SDS011;3803;51.666;7.630;2022-11-15T01:04:40;9.65;;;8.57;;
7523;SDS011;3803;51.666;7.630;2022-11-15T01:05:20;9.40;;;8.40;;
7523;SDS011;3803;51.666;7.630;2022-11-15T01:05:59;11.82;;;9.40;;
7523;SDS011;3803;51.666;7.630;2022-11-15T01:06:39;11.77;;;9.40;;
7523;SDS011;3803;51.666;7.630;2022-11-15T01:07:18;11.85;;;9.63;;
7523;SDS011;3803;51.666;7.630;2022-11-15T01:07:57;11.57;;;9.75;;
7523;SDS011;3803;51.666;7.630;2022-11-15T01:08:38;11.38;;;9.07;;
7523;SDS011;3803;51.666;7.630;2022-11-15T01:09:20;10.25;;;9.00;;
7523;SDS011;3803;51.666;7.630;2022-11-15T01:09:59;9.95;;;8.88;;
7523;SDS011;3803;51.666;7.630;2022-11-15T01:10:38;9.98;;;8.90;;
7523;SDS011;3803;51.666;7.630;2022-11-15T01:11:17;10.10;;;8.98;;
7523;SDS011;3803;51.666;7.630;2022-11-15T01:11:56;10.07;;;8.90;;
7523;SDS011;3803;51.666;7.630;2022-11-15T01:12:35;10.15;;;9.05;;
7523;SDS011;3803;51.666;7.630;2022-11-15T01:13:14;9.90;;;8.90;;
7523;SDS011;3803;51.666;7.630;2022-11-15T01:13:53;11.00;;;9.20;;
7523;SDS011;3803;51.666;7.630;2022-11-15T01:14:33;11.85;;;9.18;;
7523;SDS011;3803;51.666;7.630;2022-11-15T01:15:12;11.00;;;9.38;;
7523;SDS011;3803;51.666;7.630;2022-11-15T01:15:51;12.75;;;9.50;;
7523;SDS011;3803;51.666;7.630;2022-11-15T01:16:30;10.02;;;9.02;;
7523;SDS011;3803;51.666;7.630;2022-11-15T01:17:11;10.73;;;8.63;;
7523;SDS011;3803;51.666;7.630;2022-11-15T01:17:50;12.88;;;10.07;;
7523;SDS011;3803;51.666;7.630;2022-11-15T01:18:29;11.48;;;9.70;;
7523;SDS011;3803;51.666;7.630;2022-11-15T01:19:08;10.63;;;9.05;;
7523;SDS011;3803;51.666;7.630;2022-11-15T01:19:47;9.85;;;8.75;;
7523;SDS011;3803;51.666;7.630;2022-11-15T01:20:27;11.25;;;9.20;;
7523;SDS011;3803;51.666;7.630;2022-11-15T01:21:07;10.23;;;9.10;;
7523;SDS011;3803;51.666;7.630;2022-11-15T01:21:51;9.70;;;8.70;;
7523;SDS011;3803;51.666;7.630;2022-11-15T01:22:30;9.52;;;8.32;;
7523;SDS011;3803;51.666;7.630;2022-11-15T01:23:09;10.40;;;8.57;;
7523;SDS011;3803;51.666;7.630;2022-11-15T01:23:52;12.32;;;8.95;;
7523;SDS011;3803;51.666;7.630;2022-11-15T01:24:32;17.98;;;8.80;;
7523;SDS011;3803;51.666;7.630;2022-11-15T01:25:11;18.10;;;8.90;;
7523;SDS011;3803;51.666;7.630;2022-11-15T01:25:51;10.20;;;8.63;;
7523;SDS011;3803;51.666;7.630;2022-11-15T01:26:30;10.00;;;8.30;;
7523;SDS011;3803;51.666;7.630;2022-11-15T01:27:10;9.50;;;8.50;;
7523;SDS011;3803;51.666;7.630;2022-11-15T01:27:49;9.95;;;8.80;;
7523;SDS011;3803;51.666;7.630;2022-11-15T01:28:32;10.85;;;8.90;;
7523;SDS011;3803;51.666;7.630;2022-11-15T01:29:12;9.77;;;8.77;;
7523;SDS011;3803;51.666;7.630;2022-11-15T01:29:51;9.60;;;8.40;;
7523;SDS011;3803;51.666;7.630;2022-11-15T01:30:30;9.57;;;8.20;;
7523;SDS011;3803;51.666;7.630;2022-11-15T01:31:18;10.57;;;9.20;;
7523;SDS011;3803;51.666;7.630;2022-11-15T01:31:59;11.30;;;9.27;;
7523;SDS011;3803;51.666;7.630;2022-11-15T01:32:38;9.63;;;8.35;;
7523;SDS011;3803;51.666;7.630;2022-11-15T01:33:18;9.43;;;8.20;;
7523;SDS011;3803;51.666;7.630;2022-11-15T01:33:57;9.52;;;8.38;;
7523;SDS011;3803;51.666;7.630;2022-11-15T01:34:36;10.95;;;8.90;;
7523;SDS011;3803;51.666;7.630;2022-11-15T01:35:15;10.23;;;9.00;;
7523;SDS011;3803;51.666;7.630;2022-11-15T01:35:54;10.27;;;8.70;;
7523;SDS011;3803;51.666;7.630;2022-11-15T01:36:33;11.07;;;8.95;;
7523;SDS011;3803;51.666;7.630;2022-11-15T01:37:13;10.63;;;8.85;;
7523;SDS011;3803;51.666;7.630;2022-11-15T01:37:52;11.15;;;8.82;;
7523;SDS011;3803;51.666;7.630;2022-11-15T01:38:31;12.02;;;9.50;;
7523;SDS011;3803;51.666;7.630;2022-11-15T01:39:10;11.95;;;9.38;;
7523;SDS011;3803;51.666;7.630;2022-11-15T01:39:49;11.43;;;9.38;;
7523;SDS011;3803;51.666;7.630;2022-11-15T01:40:28;11.15;;;9.60;;
7523;SDS011;3803;51.666;7.630;2022-11-15T01:41:17;10.48;;;9.13;;
7523;SDS011;3803;51.666;7.630;2022-11-15T01:41:59;11.65;;;9.25;;
7523;SDS011;3803;51.666;7.630;2022-11-15T01:42:38;11.30;;;9.20;;
7523;SDS011;3803;51.666;7.630;2022-11-15T01:43:21;11.48;;;9.65;;
7523;SDS011;3803;51.666;7.630;2022-11-15T01:45:13;10.55;;;9.45;;
7523;SDS011;3803;51.666;7.630;2022-11-15T01:45:55;12.80;;;9.50;;
7523;SDS011;3803;51.666;7.630;2022-11-15T01:46:41;11.40;;;8.77;;
7523;SDS011;3803;51.666;7.630;2022-11-15T01:47:24;11.55;;;8.82;;
7523;SDS011;3803;51.666;7.630;2022-11-15T01:48:07;9.70;;;8.70;;
7523;SDS011;3803;51.666;7.630;2022-11-15T01:48:50;12.40;;;9.10;;
7523;SDS011;3803;51.666;7.630;2022-11-15T01:49:32;14.10;;;8.93;;
7523;SDS011;3803;51.666;7.630;2022-11-15T01:50:24;11.52;;;9.07;;
7523;SDS011;3803;51.666;7.630;2022-11-15T01:51:10;11.63;;;9.20;;
7523;SDS011;3803;51.666;7.630;2022-11-15T01:51:51;11.52;;;9.10;;
7523;SDS011;3803;51.666;7.630;2022-11-15T01:52:32;12.02;;;9.20;;
7523;SDS011;3803;51.666;7.630;2022-11-15T01:53:13;11.70;;;8.68;;
7523;SDS011;3803;51.666;7.630;2022-11-15T01:53:55;10.40;;;8.73;;
7523;SDS011;3803;51.666;7.630;2022-11-15T01:54:39;11.10;;;8.95;;
7523;SDS011;3803;51.666;7.630;2022-11-15T01:55:20;10.30;;;8.77;;
7523;SDS011;3803;51.666;7.630;2022-11-15T01:56:04;12.13;;;9.13;;
7523;SDS011;3803;51.666;7.630;2022-11-15T01:56:48;10.93;;;8.70;;
7523;SDS011;3803;51.666;7.630;2022-11-15T01:57:34;11.30;;;8.90;;
7523;SDS011;3803;51.666;7.630;2022-11-15T01:58:14;12.40;;;8.95;;
7523;SDS011;3803;51.666;7.630;2022-11-15T01:58:53;11.38;;;8.85;;
7523;SDS011;3803;51.666;7.630;2022-11-15T01:59:39;9.70;;;8.60;;
7523;SDS011;3803;51.666;7.630;2022-11-15T02:00:21;10.70;;;8.20;;
7523;SDS011;3803;51.666;7.630;2022-11-15T02:01:00;11.45;;;8.75;;
7523;SDS011;3803;51.666;7.630;2022-11-15T02:01:39;10.68;;;8.57;;
7523;SDS011;3803;51.666;7.630;2022-11-15T02:02:19;10.98;;;9.10;;
7523;SDS011;3803;51.666;7.630;2022-11-15T02:02:58;10.00;;;8.77;;
7523;SDS011;3803;51.666;7.630;2022-11-15T02:03:44;10.07;;;8.23;;
7523;SDS011;3803;51.666;7.630;2022-11-15T02:04:39;9.52;;;7.78;;
7523;SDS011;3803;51.666;7.630;2022-11-15T02:05:23;9.15;;;7.50;;
7523;SDS011;3803;51.666;7.630;2022-11-15T02:06:03;9.35;;;7.95;;
7523;SDS011;3803;51.666;7.630;2022-11-15T02:06:43;11.52;;;8.77;;
7523;SDS011;3803;51.666;7.630;2022-11-15T02:07:24;11.80;;;8.50;;
7523;SDS011;3803;51.666;7.630;2022-11-15T02:08:04;9.73;;;7.95;;
7523;SDS011;3803;51.666;7.630;2022-11-15T02:08:44;10.80;;;8.60;;
7523;SDS011;3803;51.666;7.630;2022-11-15T02:09:23;10.07;;;8.68;;
7523;SDS011;3803;51.666;7.630;2022-11-15T02:10:10;9.45;;;8.45;;
7523;SDS011;3803;51.666;7.630;2022-11-15T02:10:55;10.20;;;8.20;;
7523;SDS011;3803;51.666;7.630;2022-11-15T02:11:34;10.90;;;8.30;;
7523;SDS011;3803;51.666;7.630;2022-11-15T02:12:14;8.95;;;7.80;;
7523;SDS011;3803;51.666;7.630;2022-11-15T02:12:57;9.88;;;8.32;;
7523;SDS011;3803;51.666;7.630;2022-11-15T02:13:39;9.70;;;8.63;;
7523;SDS011;3803;51.666;7.630;2022-11-15T02:14:19;9.80;;;8.60;;
7523;SDS011;3803;51.666;7.630;2022-11-15T02:14:59;9.30;;;7.93;;
7523;SDS011;3803;51.666;7.630;2022-11-15T02:15:42;8.85;;;7.95;;
7523;SDS011;3803;51.666;7.630;2022-11-15T02:18:28;9.65;;;7.70;;
7523;SDS011;3803;51.666;7.630;2022-11-15T02:26:08;9.80;;;8.10;;
7523;SDS011;3803;51.666;7.630;2022-11-15T02:29:02;11.70;;;7.75;;
7523;SDS011;3803;51.666;7.630;2022-11-15T02:32:50;9.38;;;7.75;;
7523;SDS011;3803;51.666;7.630;2022-11-15T02:34:31;9.95;;;7.85;;
7523;SDS011;3803;51.666;7.630;2022-11-15T02:35:22;10.30;;;8.20;;
7523;SDS011;3803;51.666;7.630;2022-11-15T02:37:47;10.25;;;7.72;;
7523;SDS011;3803;51.666;7.630;2022-11-15T02:41:15;10.02;;;7.40;;
7523;SDS011;3803;51.666;7.630;2022-11-15T02:42:02;10.73;;;8.20;;
7523;SDS011;3803;51.666;7.630;2022-11-15T02:43:10;9.30;;;7.78;;
7523;SDS011;3803;51.666;7.630;2022-11-15T02:44:12;11.52;;;8.20;;
7523;SDS011;3803;51.666;7.630;2022-11-15T02:44:56;10.90;;;7.80;;
7523;SDS011;3803;51.666;7.630;2022-11-15T02:45:43;10.60;;;7.65;;
7523;SDS011;3803;51.666;7.630;2022-11-15T02:46:34;11.48;;;7.60;;
7523;SDS011;3803;51.666;7.630;2022-11-15T02:47:38;8.68;;;7.35;;
7523;SDS011;3803;51.666;7.630;2022-11-15T02:48:22;8.13;;;7.10;;
7523;SDS011;3803;51.666;7.630;2022-11-15T02:49:03;12.48;;;8.00;;
7523;SDS011;3803;51.666;7.630;2022-11-15T02:49:57;11.13;;;8.40;;
7523;SDS011;3803;51.666;7.630;2022-11-15T02:50:39;8.95;;;7.40;;
7523;SDS011;3803;51.666;7.630;2022-11-15T02:51:19;9.75;;;7.30;;
7523;SDS011;3803;51.666;7.630;2022-11-15T02:51:59;8.48;;;7.38;;
7523;SDS011;3803;51.666;7.630;2022-11-15T02:52:38;9.27;;;7.55;;
7523;SDS011;3803;51.666;7.630;2022-11-15T02:53:17;9.00;;;7.72;;
7523;SDS011;3803;51.666;7.630;2022-11-15T02:53:56;10.18;;;7.95;;
7523;SDS011;3803;51.666;7.630;2022-11-15T02:54:35;9.52;;;7.60;;
7523;SDS011;3803;51.666;7.630;2022-11-15T02:56:07;8.60;;;7.13;;
7523;SDS011;3803;51.666;7.630;2022-11-15T02:56:48;9.57;;;7.57;;
7523;SDS011;3803;51.666;7.630;2022-11-15T02:57:48;9.40;;;7.60;;
7523;SDS011;3803;51.666;7.630;2022-11-15T02:58:45;7.65;;;6.85;;
7523;SDS011;3803;51.666;7.630;2022-11-15T02:59:43;9.43;;;7.95;;
7523;SDS011;3803;51.666;7.630;2022-11-15T03:00:28;8.95;;;7.93;;
7523;SDS011;3803;51.666;7.630;2022-11-15T03:04:23;9.52;;;7.70;;
7523;SDS011;3803;51.666;7.630;2022-11-15T03:05:23;8.43;;;7.28;;
7523;SDS011;3803;51.666;7.630;2022-11-15T03:09:59;8.70;;;7.10;;
7523;SDS011;3803;51.666;7.630;2022-11-15T03:12:07;9.80;;;6.90;;
7523;SDS011;3803;51.666;7.630;2022-11-15T03:12:56;9.20;;;7.30;;
7523;SDS011;3803;51.666;7.630;2022-11-15T03:13:56;10.13;;;7.38;;
7523;SDS011;3803;51.666;7.630;2022-11-15T03:14:41;9.05;;;7.50;;
7523;SDS011;3803;51.666;7.630;2022-11-15T03:15:40;8.65;;;7.70;;
7523;SDS011;3803;51.666;7.630;2022-11-15T03:17:36;8.88;;;7.07;;
7523;SDS011;3803;51.666;7.630;2022-11-15T03:18:29;9.15;;;7.40;;
7523;SDS011;3803;51.666;7.630;2022-11-15T03:19:19;9.15;;;6.90;;
7523;SDS011;3803;51.666;7.630;2022-11-15T03:20:16;8.88;;;7.30;;
7523;SDS011;3803;51.666;7.630;2022-11-15T03:20:58;11.13;;;7.40;;
7523;SDS011;3803;51.666;7.630;2022-11-15T03:21:44;9.73;;;7.25;;
7523;SDS011;3803;51.666;7.630;2022-11-15T03:22:27;8.35;;;7.18;;
7523;SDS011;3803;51.666;7.630;2022-11-15T03:23:09;10.90;;;7.90;;
7523;SDS011;3803;51.666;7.630;2022-11-15T03:23:50;10.55;;;7.13;;
7523;SDS011;3803;51.666;7.630;2022-11-15T03:24:31;9.35;;;7.00;;
7523;SDS011;3803;51.666;7.630;2022-11-15T03:25:19;8.85;;;7.00;;
7523;SDS011;3803;51.666;7.630;2022-11-15T03:26:00;8.55;;;6.90;;
7523;SDS011;3803;51.666;7.630;2022-11-15T03:26:40;8.38;;;6.40;;
7523;SDS011;3803;51.666;7.630;2022-11-15T03:27:23;9.43;;;7.03;;
7523;SDS011;3803;51.666;7.630;2022-11-15T03:28:05;8.98;;;7.30;;
7523;SDS011;3803;51.666;7.630;2022-11-15T03:29:37;8.98;;;7.65;;
7523;SDS011;3803;51.666;7.630;2022-11-15T03:30:20;9.70;;;7.50;;
7523;SDS011;3803;51.666;7.630;2022-11-15T03:30:59;8.10;;;7.03;;
7523;SDS011;3803;51.666;7.630;2022-11-15T03:32:02;9.40;;;7.43;;
7523;SDS011;3803;51.666;7.630;2022-11-15T03:32:52;11.02;;;7.53;;
7523;SDS011;3803;51.666;7.630;2022-11-15T03:33:35;10.40;;;7.50;;
7523;SDS011;3803;51.666;7.630;2022-11-15T03:34:22;9.18;;;7.50;;
7523;SDS011;3803;51.666;7.630;2022-11-15T03:35:25;8.73;;;7.05;;
7523;SDS011;3803;51.666;7.630;2022-11-15T03:36:09;8.75;;;7.22;;
7523;SDS011;3803;51.666;7.630;2022-11-15T03:36:49;10.27;;;6.97;;
7523;SDS011;3803;51.666;7.630;2022-11-15T03:37:37;10.43;;;7.30;;
7523;SDS011;3803;51.666;7.630;2022-11-15T03:38:24;8.65;;;6.80;;
7523;SDS011;3803;51.666;7.630;2022-11-15T03:39:06;9.48;;;7.07;;
7523;SDS011;3803;51.666;7.630;2022-11-15T03:39:47;10.50;;;7.20;;
7523;SDS011;3803;51.666;7.630;2022-11-15T03:40:37;10.43;;;7.70;;
7523;SDS011;3803;51.666;7.630;2022-11-15T03:43:15;8.07;;;6.90;;
7523;SDS011;3803;51.666;7.630;2022-11-15T03:44:09;9.45;;;7.50;;
7523;SDS011;3803;51.666;7.630;2022-11-15T03:45:09;8.82;;;7.47;;
7523;SDS011;3803;51.666;7.630;2022-11-15T03:46:27;9.40;;;7.40;;
7523;SDS011;3803;51.666;7.630;2022-11-15T03:48:41;8.80;;;7.30;;
7523;SDS011;3803;51.666;7.630;2022-11-15T03:49:14;11.40;;;8.07;;
7523;SDS011;3803;51.666;7.630;2022-11-15T03:51:03;8.18;;;6.85;;
7523;SDS011;3803;51.666;7.630;2022-11-15T03:51:43;8.90;;;7.10;;
7523;SDS011;3803;51.666;7.630;2022-11-15T03:52:22;9.60;;;7.10;;
7523;SDS011;3803;51.666;7.630;2022-11-15T03:53:02;10.00;;;7.50;;
7523;SDS011;3803;51.666;7.630;2022-11-15T03:53:41;10.35;;;7.75;;
7523;SDS011;3803;51.666;7.630;2022-11-15T03:54:21;10.02;;;7.50;;
7523;SDS011;3803;51.666;7.630;2022-11-15T03:55:00;10.63;;;7.40;;
7523;SDS011;3803;51.666;7.630;2022-11-15T03:55:42;10.65;;;7.40;;
7523;SDS011;3803;51.666;7.630;2022-11-15T03:56:21;10.15;;;7.03;;
7523;SDS011;3803;51.666;7.630;2022-11-15T03:57:00;9.40;;;7.10;;
7523;SDS011;3803;51.666;7.630;2022-11-15T03:57:39;11.38;;;7.22;;
7523;SDS011;3803;51.666;7.630;2022-11-15T03:58:41;9.80;;;6.95;;
7523;SDS011;3803;51.666;7.630;2022-11-15T03:59:20;9.55;;;7.13;;
7523;SDS011;3803;51.666;7.630;2022-11-15T03:59:59;9.35;;;7.00;;
7523;SDS011;3803;51.666;7.630;2022-11-15T04:00:38;9.73;;;6.90;;
7523;SDS011;3803;51.666;7.630;2022-11-15T04:01:18;9.48;;;6.80;;
7523;SDS011;3803;51.666;7.630;2022-11-15T04:01:56;9.40;;;6.93;;
7523;SDS011;3803;51.666;7.630;2022-11-15T04:02:36;9.43;;;7.10;;
7523;SDS011;3803;51.666;7.630;2022-11-15T04:03:15;8.50;;;7.30;;
7523;SDS011;3803;51.666;7.630;2022-11-15T04:03:54;8.93;;;7.10;;
7523;SDS011;3803;51.666;7.630;2022-11-15T04:04:33;9.25;;;7.60;;
7523;SDS011;3803;51.666;7.630;2022-11-15T04:05:12;10.68;;;7.72;;
7523;SDS011;3803;51.666;7.630;2022-11-15T04:05:51;8.65;;;6.82;;
7523;SDS011;3803;51.666;7.630;2022-11-15T04:06:30;11.52;;;7.10;;
7523;SDS011;3803;51.666;7.630;2022-11-15T04:07:09;10.80;;;7.00;;
7523;SDS011;3803;51.666;7.630;2022-11-15T04:07:48;11.68;;;6.95;;
7523;SDS011;3803;51.666;7.630;2022-11-15T04:08:27;11.13;;;7.28;;
7523;SDS011;3803;51.666;7.630;2022-11-15T04:09:06;9.95;;;7.30;;
7523;SDS011;3803;51.666;7.630;2022-11-15T04:09:45;8.52;;;7.28;;
7523;SDS011;3803;51.666;7.630;2022-11-15T04:10:44;8.90;;;6.97;;
7523;SDS011;3803;51.666;7.630;2022-11-15T04:11:23;8.80;;;6.93;;
7523;SDS011;3803;51.666;7.630;2022-11-15T04:12:02;9.70;;;7.30;;
7523;SDS011;3803;51.666;7.630;2022-11-15T04:12:43;8.15;;;6.82;;
7523;SDS011;3803;51.666;7.630;2022-11-15T04:13:24;9.23;;;6.75;;
7523;SDS011;3803;51.666;7.630;2022-11-15T04:14:03;10.10;;;6.80;;
7523;SDS011;3803;51.666;7.630;2022-11-15T04:14:42;9.68;;;7.30;;
7523;SDS011;3803;51.666;7.630;2022-11-15T04:15:41;9.93;;;6.70;;
7523;SDS011;3803;51.666;7.630;2022-11-15T04:16:20;8.10;;;6.40;;
7523;SDS011;3803;51.666;7.630;2022-11-15T04:17:00;9.20;;;6.93;;
7523;SDS011;3803;51.666;7.630;2022-11-15T04:17:46;8.07;;;7.10;;
7523;SDS011;3803;51.666;7.630;2022-11-15T04:18:26;8.40;;;6.70;;
7523;SDS011;3803;51.666;7.630;2022-11-15T04:19:05;12.18;;;7.00;;
7523;SDS011;3803;51.666;7.630;2022-11-15T04:20:04;7.97;;;6.78;;
7523;SDS011;3803;51.666;7.630;2022-11-15T04:21:04;9.07;;;7.00;;
7523;SDS011;3803;51.666;7.630;2022-11-15T04:22:02;11.93;;;7.80;;
7523;SDS011;3803;51.666;7.630;2022-11-15T04:23:01;7.85;;;7.05;;
7523;SDS011;3803;51.666;7.630;2022-11-15T04:24:01;7.10;;;6.40;;
7523;SDS011;3803;51.666;7.630;2022-11-15T04:24:52;8.35;;;6.50;;
7523;SDS011;3803;51.666;7.630;2022-11-15T04:25:31;9.93;;;6.60;;
7523;SDS011;3803;51.666;7.630;2022-11-15T04:26:11;10.93;;;6.47;;
7523;SDS011;3803;51.666;7.630;2022-11-15T04:26:54;8.60;;;6.90;;
7523;SDS011;3803;51.666;7.630;2022-11-15T04:27:40;8.00;;;6.55;;
7523;SDS011;3803;51.666;7.630;2022-11-15T04:28:19;10.13;;;6.82;;
7523;SDS011;3803;51.666;7.630;2022-11-15T04:28:58;9.48;;;6.80;;
7523;SDS011;3803;51.666;7.630;2022-11-15T04:29:56;7.55;;;6.22;;
7523;SDS011;3803;51.666;7.630;2022-11-15T04:30:35;8.00;;;6.60;;
7523;SDS011;3803;51.666;7.630;2022-11-15T04:31:14;7.60;;;6.10;;
7523;SDS011;3803;51.666;7.630;2022-11-15T04:31:53;7.82;;;6.30;;
7523;SDS011;3803;51.666;7.630;2022-11-15T04:32:33;8.73;;;6.50;;
7523;SDS011;3803;51.666;7.630;2022-11-15T04:33:11;7.22;;;6.13;;
7523;SDS011;3803;51.666;7.630;2022-11-15T04:33:51;7.75;;;6.20;;
7523;SDS011;3803;51.666;7.630;2022-11-15T04:34:30;8.90;;;6.30;;
7523;SDS011;3803;51.666;7.630;2022-11-15T04:35:09;7.95;;;6.20;;
7523;SDS011;3803;51.666;7.630;2022-11-15T04:35:48;8.13;;;6.22;;
7523;SDS011;3803;51.666;7.630;2022-11-15T04:36:47;8.18;;;6.88;;
7523;SDS011;3803;51.666;7.630;2022-11-15T04:37:45;8.10;;;6.38;;
7523;SDS011;3803;51.666;7.630;2022-11-15T04:38:24;8.20;;;6.57;;
7523;SDS011;3803;51.666;7.630;2022-11-15T04:39:03;10.32;;;7.13;;
7523;SDS011;3803;51.666;7.630;2022-11-15T04:39:43;9.90;;;6.80;;
7523;SDS011;3803;51.666;7.630;2022-11-15T04:40:22;9.57;;;6.45;;
7523;SDS011;3803;51.666;7.630;2022-11-15T04:41:01;9.52;;;6.80;;
7523;SDS011;3803;51.666;7.630;2022-11-15T04:41:41;8.43;;;7.53;;
7523;SDS011;3803;51.666;7.630;2022-11-15T04:42:20;7.82;;;7.03;;
7523;SDS011;3803;51.666;7.630;2022-11-15T04:42:59;9.05;;;7.82;;
7523;SDS011;3803;51.666;7.630;2022-11-15T04:43:38;9.30;;;7.63;;
7523;SDS011;3803;51.666;7.630;2022-11-15T04:44:18;8.77;;;6.63;;
7523;SDS011;3803;51.666;7.630;2022-11-15T04:44:57;9.80;;;7.05;;
7523;SDS011;3803;51.666;7.630;2022-11-15T04:45:36;10.73;;;7.15;;
7523;SDS011;3803;51.666;7.630;2022-11-15T04:46:15;9.35;;;6.60;;
7523;SDS011;3803;51.666;7.630;2022-11-15T04:46:54;8.98;;;6.70;;
7523;SDS011;3803;51.666;7.630;2022-11-15T04:47:33;8.77;;;6.70;;
7523;SDS011;3803;51.666;7.630;2022-11-15T04:48:12;8.15;;;6.25;;
7523;SDS011;3803;51.666;7.630;2022-11-15T04:48:52;9.75;;;6.90;;
7523;SDS011;3803;51.666;7.630;2022-11-15T04:49:31;9.82;;;7.43;;
7523;SDS011;3803;51.666;7.630;2022-11-15T04:50:10;8.13;;;7.10;;
7523;SDS011;3803;51.666;7.630;2022-11-15T04:50:53;8.73;;;7.00;;
7523;SDS011;3803;51.666;7.630;2022-11-15T04:51:32;9.00;;;7.20;;
7523;SDS011;3803;51.666;7.630;2022-11-15T04:52:11;8.23;;;7.30;;
7523;SDS011;3803;51.666;7.630;2022-11-15T04:52:51;9.90;;;7.30;;
7523;SDS011;3803;51.666;7.630;2022-11-15T04:53:32;9.02;;;7.75;;
7523;SDS011;3803;51.666;7.630;2022-11-15T04:54:11;10.30;;;7.07;;
7523;SDS011;3803;51.666;7.630;2022-11-15T04:54:50;7.80;;;6.97;;
7523;SDS011;3803;51.666;7.630;2022-11-15T04:55:29;8.73;;;7.30;;
7523;SDS011;3803;51.666;7.630;2022-11-15T04:56:08;9.07;;;7.28;;
7523;SDS011;3803;51.666;7.630;2022-11-15T04:56:47;9.52;;;6.90;;